Airfield :
LOGIN :

Register | Disclaimer

   EN    FR    IT 

 










Legend :    VFR   Marginal VFR   IFR   Intensive IFR   Very Intensive IFR
Visi :
Ceiling :
>= 8 km
>= 3000ft
5 to 8 km
1000 to 3000 ft
1500m to 5 km
500 to 1000 ft
800 to 1500m
200 to 500 ft
< 800m
< 200 ft
Symbols :   Thunderstorms  Fog  Heavy snow  Heavy precipitations  Wind > 20 kt
SIGMETs :     Misc.  Thunderstorms  Icing  Turbulence  Mountain Waves  Volcanic Ashes







- Airport Elevation : 162 ft
- IATA code : BOD
- Download approach charts


LFBD - Bordeaux / Merignac

CURRENT METAR :
  • 201930Z AUTO 30007KT CAVOK 23/17 Q1019 NOSIG

EXPIRED METARs :
  • 201900Z AUTO 30009KT CAVOK 24/17 Q1018 NOSIG
  • 201830Z AUTO 30010KT CAVOK 25/17 Q1018 NOSIG
  • 201800Z AUTO 30011KT 9999 FEW032 26/17 Q1018 NOSIG
  • 201730Z AUTO 30011KT 280V340 9999 BKN037 26/17 Q1018 NOSIG
  • 201700Z AUTO 29012KT 9999 SCT039 BKN046 28/17 Q1017 NOSIG

TAF TAF LFBD
Valid from the 20 at 18:00 until the 22 at 00:00 UTC


201700Z 2018/2124 30010KT CAVOK TX31/2115Z TN19/2105Z
BECMG 2100/2102 01004KT
PROB40
TEMPO 2104/2107 BKN010
TEMPO 2116/2119 30010KT
ATIS : +33 5 57 92 81 04
No reported NOTAMs for that airfield.



MET'MAP, your aeronautical weather chart ! - Copyright ORBIFLY December 2007 - Disclaimer

ORBIFLY MET'MAP TEAM :

Programming & Development : Alexandra Zaïnal
Concept & Development : Baudouin d'Aumeries
Co-Development & Prog : Marc-Olivier Méhu
Technical & hardware support : Manuel Goepfert

Contact : metmap@orbifly.com




SOURCES & CREDITS :

   NOAA